Falling Spring, Virginia
Current Conditions -  °F | °C
As of 9:15 AM on Thursday 30 Oct 2014 (Local Time) from KHSP Reporting Station
Clear Clear  
Wind Chill: 32°   Ceiling: Unl
Heat Index: 37°   Visibility: 10mi
Dew Point: 32°   Wind: 7mph
Humidity: 83%   Direction: 280°W
Pressure: 30.03"   Gusts: NA
Location:  37.9738°N, 79.8988°W
Report Text: KHSP 301315Z AUTO 28006KT 10SM CLR 03/00 A3003 RMK AO2 T00280002
Loading
Personal Weather Stations






























Interactive Weather Map
Tropical Storm Tracking
New forecast layout! Learn more

10-Day Weather Forecast

Advertisements
Track Severe Weather on mobile